sensor_id;sensor_type;location;lat;lon;timestamp;P1;durP1;ratioP1;P2;durP2;ratioP2
10847;SDS011;5477;48.806;9.154;2024-01-15T00:00:39;16.33;;;7.40;;
10847;SDS011;5477;48.806;9.154;2024-01-15T00:03:08;14.97;;;7.20;;
10847;SDS011;5477;48.806;9.154;2024-01-15T00:05:37;15.00;;;7.53;;
10847;SDS011;5477;48.806;9.154;2024-01-15T00:08:05;14.90;;;7.57;;
10847;SDS011;5477;48.806;9.154;2024-01-15T00:10:34;11.40;;;6.07;;
10847;SDS011;5477;48.806;9.154;2024-01-15T00:13:02;13.33;;;6.60;;
10847;SDS011;5477;48.806;9.154;2024-01-15T00:15:32;13.07;;;7.17;;
10847;SDS011;5477;48.806;9.154;2024-01-15T00:18:00;13.07;;;6.67;;
10847;SDS011;5477;48.806;9.154;2024-01-15T00:20:28;12.80;;;7.07;;
10847;SDS011;5477;48.806;9.154;2024-01-15T00:22:56;20.87;;;6.93;;
10847;SDS011;5477;48.806;9.154;2024-01-15T00:25:24;12.33;;;6.37;;
10847;SDS011;5477;48.806;9.154;2024-01-15T00:27:52;11.43;;;5.90;;
10847;SDS011;5477;48.806;9.154;2024-01-15T00:30:20;11.93;;;5.83;;
10847;SDS011;5477;48.806;9.154;2024-01-15T00:32:50;11.83;;;6.20;;
10847;SDS011;5477;48.806;9.154;2024-01-15T00:35:21;14.00;;;6.47;;
10847;SDS011;5477;48.806;9.154;2024-01-15T00:37:49;12.13;;;6.37;;
10847;SDS011;5477;48.806;9.154;2024-01-15T00:40:17;13.33;;;7.07;;
10847;SDS011;5477;48.806;9.154;2024-01-15T00:42:45;12.47;;;6.57;;
10847;SDS011;5477;48.806;9.154;2024-01-15T00:45:13;12.83;;;6.33;;
10847;SDS011;5477;48.806;9.154;2024-01-15T00:47:41;12.97;;;6.40;;
10847;SDS011;5477;48.806;9.154;2024-01-15T00:50:12;10.70;;;6.13;;
10847;SDS011;5477;48.806;9.154;2024-01-15T00:52:40;11.90;;;6.30;;
10847;SDS011;5477;48.806;9.154;2024-01-15T00:55:08;12.33;;;6.00;;
10847;SDS011;5477;48.806;9.154;2024-01-15T00:57:36;12.27;;;5.97;;
10847;SDS011;5477;48.806;9.154;2024-01-15T01:00:04;12.63;;;5.87;;
10847;SDS011;5477;48.806;9.154;2024-01-15T01:02:34;9.87;;;6.00;;
10847;SDS011;5477;48.806;9.154;2024-01-15T01:05:02;14.23;;;6.30;;
10847;SDS011;5477;48.806;9.154;2024-01-15T01:07:32;12.03;;;5.97;;
10847;SDS011;5477;48.806;9.154;2024-01-15T01:10:01;10.67;;;5.60;;
10847;SDS011;5477;48.806;9.154;2024-01-15T01:12:29;9.37;;;5.93;;
10847;SDS011;5477;48.806;9.154;2024-01-15T01:14:57;11.77;;;5.47;;
10847;SDS011;5477;48.806;9.154;2024-01-15T01:17:25;9.27;;;4.77;;
10847;SDS011;5477;48.806;9.154;2024-01-15T01:19:53;12.37;;;5.83;;
10847;SDS011;5477;48.806;9.154;2024-01-15T01:22:21;10.63;;;5.93;;
10847;SDS011;5477;48.806;9.154;2024-01-15T01:24:51;10.00;;;5.80;;
10847;SDS011;5477;48.806;9.154;2024-01-15T01:27:19;11.60;;;5.57;;
10847;SDS011;5477;48.806;9.154;2024-01-15T01:29:47;10.33;;;5.73;;
10847;SDS011;5477;48.806;9.154;2024-01-15T01:32:15;11.83;;;6.33;;
10847;SDS011;5477;48.806;9.154;2024-01-15T01:34:43;10.73;;;5.77;;
10847;SDS011;5477;48.806;9.154;2024-01-15T01:37:12;11.17;;;6.10;;
10847;SDS011;5477;48.806;9.154;2024-01-15T01:39:40;12.37;;;6.27;;
10847;SDS011;5477;48.806;9.154;2024-01-15T01:42:11;12.77;;;5.33;;
10847;SDS011;5477;48.806;9.154;2024-01-15T01:44:40;11.10;;;6.07;;
10847;SDS011;5477;48.806;9.154;2024-01-15T01:47:08;8.87;;;5.80;;
10847;SDS011;5477;48.806;9.154;2024-01-15T01:49:37;11.73;;;6.23;;
10847;SDS011;5477;48.806;9.154;2024-01-15T01:52:06;10.43;;;5.70;;
10847;SDS011;5477;48.806;9.154;2024-01-15T01:54:34;10.37;;;5.47;;
10847;SDS011;5477;48.806;9.154;2024-01-15T01:57:04;9.90;;;5.40;;
10847;SDS011;5477;48.806;9.154;2024-01-15T01:59:34;11.77;;;6.00;;
10847;SDS011;5477;48.806;9.154;2024-01-15T02:02:03;14.07;;;5.93;;
10847;SDS011;5477;48.806;9.154;2024-01-15T02:04:31;11.93;;;5.83;;
10847;SDS011;5477;48.806;9.154;2024-01-15T02:07:00;11.77;;;6.07;;
10847;SDS011;5477;48.806;9.154;2024-01-15T02:09:29;11.83;;;5.37;;
10847;SDS011;5477;48.806;9.154;2024-01-15T02:11:58;10.50;;;5.20;;
10847;SDS011;5477;48.806;9.154;2024-01-15T02:14:26;10.60;;;5.63;;
10847;SDS011;5477;48.806;9.154;2024-01-15T02:16:56;11.93;;;5.90;;
10847;SDS011;5477;48.806;9.154;2024-01-15T02:19:24;10.10;;;5.13;;
10847;SDS011;5477;48.806;9.154;2024-01-15T02:21:52;11.93;;;5.90;;
10847;SDS011;5477;48.806;9.154;2024-01-15T02:24:21;10.20;;;5.70;;
10847;SDS011;5477;48.806;9.154;2024-01-15T02:26:49;11.07;;;5.40;;
10847;SDS011;5477;48.806;9.154;2024-01-15T02:29:18;10.50;;;4.97;;
10847;SDS011;5477;48.806;9.154;2024-01-15T02:31:46;9.27;;;5.50;;
10847;SDS011;5477;48.806;9.154;2024-01-15T02:34:14;9.67;;;5.53;;
10847;SDS011;5477;48.806;9.154;2024-01-15T02:36:43;11.67;;;5.90;;
10847;SDS011;5477;48.806;9.154;2024-01-15T02:39:11;12.03;;;5.73;;
10847;SDS011;5477;48.806;9.154;2024-01-15T02:41:40;10.97;;;6.47;;
10847;SDS011;5477;48.806;9.154;2024-01-15T02:44:08;11.20;;;5.80;;
10847;SDS011;5477;48.806;9.154;2024-01-15T02:46:36;10.57;;;5.67;;
10847;SDS011;5477;48.806;9.154;2024-01-15T02:49:04;12.40;;;6.50;;
10847;SDS011;5477;48.806;9.154;2024-01-15T02:51:33;11.30;;;6.03;;
10847;SDS011;5477;48.806;9.154;2024-01-15T02:54:01;10.07;;;5.33;;
10847;SDS011;5477;48.806;9.154;2024-01-15T02:56:29;11.50;;;5.23;;
10847;SDS011;5477;48.806;9.154;2024-01-15T02:58:58;10.70;;;5.90;;
10847;SDS011;5477;48.806;9.154;2024-01-15T03:01:26;10.50;;;5.53;;
10847;SDS011;5477;48.806;9.154;2024-01-15T03:03:54;12.67;;;5.83;;
10847;SDS011;5477;48.806;9.154;2024-01-15T03:06:24;8.67;;;5.37;;
10847;SDS011;5477;48.806;9.154;2024-01-15T03:08:52;9.83;;;5.60;;
10847;SDS011;5477;48.806;9.154;2024-01-15T03:11:20;9.93;;;5.73;;
10847;SDS011;5477;48.806;9.154;2024-01-15T03:13:48;9.67;;;5.83;;
10847;SDS011;5477;48.806;9.154;2024-01-15T03:16:17;12.80;;;5.40;;
10847;SDS011;5477;48.806;9.154;2024-01-15T03:18:47;12.47;;;6.07;;
10847;SDS011;5477;48.806;9.154;2024-01-15T03:21:15;11.50;;;6.33;;
10847;SDS011;5477;48.806;9.154;2024-01-15T03:23:43;9.17;;;5.33;;
10847;SDS011;5477;48.806;9.154;2024-01-15T03:26:11;11.57;;;5.47;;
10847;SDS011;5477;48.806;9.154;2024-01-15T03:28:39;11.10;;;5.10;;
10847;SDS011;5477;48.806;9.154;2024-01-15T03:31:07;9.47;;;5.77;;
10847;SDS011;5477;48.806;9.154;2024-01-15T03:33:36;8.33;;;4.70;;
10847;SDS011;5477;48.806;9.154;2024-01-15T03:36:05;8.63;;;5.00;;
10847;SDS011;5477;48.806;9.154;2024-01-15T03:38:34;11.60;;;5.57;;
10847;SDS011;5477;48.806;9.154;2024-01-15T03:41:02;10.73;;;5.43;;
10847;SDS011;5477;48.806;9.154;2024-01-15T03:43:30;10.73;;;5.80;;
10847;SDS011;5477;48.806;9.154;2024-01-15T03:45:58;10.07;;;5.77;;
10847;SDS011;5477;48.806;9.154;2024-01-15T03:48:26;10.63;;;5.80;;
10847;SDS011;5477;48.806;9.154;2024-01-15T03:50:56;9.50;;;5.10;;
10847;SDS011;5477;48.806;9.154;2024-01-15T03:53:24;11.17;;;5.90;;
10847;SDS011;5477;48.806;9.154;2024-01-15T03:55:52;12.63;;;5.67;;
10847;SDS011;5477;48.806;9.154;2024-01-15T03:58:20;11.40;;;5.50;;
10847;SDS011;5477;48.806;9.154;2024-01-15T04:00:48;7.40;;;5.07;;
10847;SDS011;5477;48.806;9.154;2024-01-15T04:03:16;12.00;;;5.77;;
10847;SDS011;5477;48.806;9.154;2024-01-15T04:05:44;9.17;;;5.27;;
10847;SDS011;5477;48.806;9.154;2024-01-15T04:08:15;8.93;;;4.80;;
10847;SDS011;5477;48.806;9.154;2024-01-15T04:10:43;11.13;;;5.53;;
10847;SDS011;5477;48.806;9.154;2024-01-15T04:13:11;8.57;;;4.63;;
10847;SDS011;5477;48.806;9.154;2024-01-15T04:15:39;9.00;;;4.37;;
10847;SDS011;5477;48.806;9.154;2024-01-15T04:18:08;6.87;;;4.50;;
10847;SDS011;5477;48.806;9.154;2024-01-15T04:20:36;6.97;;;4.00;;
10847;SDS011;5477;48.806;9.154;2024-01-15T04:23:05;8.83;;;4.43;;
10847;SDS011;5477;48.806;9.154;2024-01-15T04:25:34;8.87;;;4.50;;
10847;SDS011;5477;48.806;9.154;2024-01-15T04:28:02;7.73;;;4.17;;
10847;SDS011;5477;48.806;9.154;2024-01-15T04:30:31;8.90;;;4.00;;
10847;SDS011;5477;48.806;9.154;2024-01-15T04:32:59;6.07;;;4.23;;
10847;SDS011;5477;48.806;9.154;2024-01-15T04:35:27;7.63;;;4.13;;
10847;SDS011;5477;48.806;9.154;2024-01-15T04:37:55;10.33;;;4.90;;
10847;SDS011;5477;48.806;9.154;2024-01-15T04:40:23;9.50;;;4.40;;
10847;SDS011;5477;48.806;9.154;2024-01-15T04:42:55;7.50;;;4.37;;
10847;SDS011;5477;48.806;9.154;2024-01-15T04:45:23;8.70;;;5.07;;
10847;SDS011;5477;48.806;9.154;2024-01-15T04:47:54;9.57;;;4.23;;
10847;SDS011;5477;48.806;9.154;2024-01-15T04:50:23;9.70;;;4.83;;
10847;SDS011;5477;48.806;9.154;2024-01-15T04:52:51;7.93;;;4.40;;
10847;SDS011;5477;48.806;9.154;2024-01-15T04:55:19;7.83;;;4.33;;
10847;SDS011;5477;48.806;9.154;2024-01-15T04:57:47;10.47;;;4.93;;
10847;SDS011;5477;48.806;9.154;2024-01-15T05:00:17;8.97;;;4.90;;
10847;SDS011;5477;48.806;9.154;2024-01-15T05:02:45;8.33;;;4.73;;
10847;SDS011;5477;48.806;9.154;2024-01-15T05:05:13;8.63;;;4.40;;
10847;SDS011;5477;48.806;9.154;2024-01-15T05:07:42;8.53;;;4.60;;
10847;SDS011;5477;48.806;9.154;2024-01-15T05:10:10;11.27;;;4.87;;
10847;SDS011;5477;48.806;9.154;2024-01-15T05:12:38;9.10;;;4.73;;
10847;SDS011;5477;48.806;9.154;2024-01-15T05:15:06;9.47;;;5.00;;
10847;SDS011;5477;48.806;9.154;2024-01-15T05:17:37;8.67;;;4.13;;
10847;SDS011;5477;48.806;9.154;2024-01-15T05:20:05;7.53;;;4.90;;
10847;SDS011;5477;48.806;9.154;2024-01-15T05:22:34;6.93;;;3.73;;
10847;SDS011;5477;48.806;9.154;2024-01-15T05:25:02;5.90;;;3.73;;
10847;SDS011;5477;48.806;9.154;2024-01-15T05:27:31;9.17;;;4.27;;
10847;SDS011;5477;48.806;9.154;2024-01-15T05:29:59;7.13;;;4.03;;
10847;SDS011;5477;48.806;9.154;2024-01-15T05:32:27;8.33;;;4.50;;
10847;SDS011;5477;48.806;9.154;2024-01-15T05:34:56;6.80;;;3.93;;
10847;SDS011;5477;48.806;9.154;2024-01-15T05:37:24;8.43;;;4.90;;
10847;SDS011;5477;48.806;9.154;2024-01-15T05:39:52;7.33;;;4.00;;
10847;SDS011;5477;48.806;9.154;2024-01-15T05:42:20;8.60;;;4.27;;
10847;SDS011;5477;48.806;9.154;2024-01-15T05:44:48;6.93;;;3.60;;
10847;SDS011;5477;48.806;9.154;2024-01-15T05:47:16;7.00;;;4.17;;
10847;SDS011;5477;48.806;9.154;2024-01-15T05:49:45;8.40;;;4.17;;
10847;SDS011;5477;48.806;9.154;2024-01-15T05:52:14;7.27;;;3.73;;
10847;SDS011;5477;48.806;9.154;2024-01-15T05:54:42;8.23;;;4.47;;
10847;SDS011;5477;48.806;9.154;2024-01-15T05:57:10;7.10;;;4.17;;
10847;SDS011;5477;48.806;9.154;2024-01-15T05:59:38;8.40;;;4.87;;
10847;SDS011;5477;48.806;9.154;2024-01-15T06:02:06;7.97;;;4.33;;
10847;SDS011;5477;48.806;9.154;2024-01-15T06:04:34;6.73;;;4.40;;
10847;SDS011;5477;48.806;9.154;2024-01-15T06:07:02;7.27;;;4.17;;
10847;SDS011;5477;48.806;9.154;2024-01-15T06:09:32;6.87;;;4.30;;
10847;SDS011;5477;48.806;9.154;2024-01-15T06:12:00;9.37;;;4.43;;
10847;SDS011;5477;48.806;9.154;2024-01-15T06:14:28;7.80;;;4.60;;
10847;SDS011;5477;48.806;9.154;2024-01-15T06:16:56;10.20;;;4.50;;
10847;SDS011;5477;48.806;9.154;2024-01-15T06:19:24;9.50;;;4.67;;
10847;SDS011;5477;48.806;9.154;2024-01-15T06:21:52;9.30;;;4.83;;
10847;SDS011;5477;48.806;9.154;2024-01-15T06:24:20;7.73;;;4.03;;
10847;SDS011;5477;48.806;9.154;2024-01-15T06:26:50;8.33;;;4.30;;
10847;SDS011;5477;48.806;9.154;2024-01-15T06:29:18;8.90;;;5.13;;
10847;SDS011;5477;48.806;9.154;2024-01-15T06:31:46;7.33;;;3.97;;
10847;SDS011;5477;48.806;9.154;2024-01-15T06:34:14;8.30;;;4.60;;
10847;SDS011;5477;48.806;9.154;2024-01-15T06:36:43;9.17;;;5.20;;
10847;SDS011;5477;48.806;9.154;2024-01-15T06:39:11;9.27;;;5.17;;
10847;SDS011;5477;48.806;9.154;2024-01-15T06:41:39;8.23;;;4.67;;
10847;SDS011;5477;48.806;9.154;2024-01-15T06:44:11;11.53;;;4.93;;
10847;SDS011;5477;48.806;9.154;2024-01-15T06:46:41;7.60;;;4.20;;
10847;SDS011;5477;48.806;9.154;2024-01-15T06:49:09;9.20;;;4.30;;
10847;SDS011;5477;48.806;9.154;2024-01-15T06:51:38;7.80;;;4.40;;
10847;SDS011;5477;48.806;9.154;2024-01-15T06:54:06;8.30;;;4.63;;
10847;SDS011;5477;48.806;9.154;2024-01-15T06:56:35;9.00;;;4.83;;
10847;SDS011;5477;48.806;9.154;2024-01-15T06:59:03;7.90;;;4.47;;
10847;SDS011;5477;48.806;9.154;2024-01-15T07:01:32;7.53;;;4.90;;
10847;SDS011;5477;48.806;9.154;2024-01-15T07:04:00;7.53;;;4.37;;
10847;SDS011;5477;48.806;9.154;2024-01-15T07:06:28;8.87;;;4.13;;
10847;SDS011;5477;48.806;9.154;2024-01-15T07:08:57;10.23;;;5.13;;
10847;SDS011;5477;48.806;9.154;2024-01-15T07:11:24;8.53;;;4.97;;
10847;SDS011;5477;48.806;9.154;2024-01-15T07:13:53;6.53;;;4.30;;
10847;SDS011;5477;48.806;9.154;2024-01-15T07:16:21;10.00;;;4.23;;
10847;SDS011;5477;48.806;9.154;2024-01-15T07:19:04;6.87;;;4.70;;
10847;SDS011;5477;48.806;9.154;2024-01-15T07:21:33;7.50;;;4.03;;
10847;SDS011;5477;48.806;9.154;2024-01-15T07:24:01;6.80;;;4.47;;
10847;SDS011;5477;48.806;9.154;2024-01-15T07:26:29;8.60;;;4.67;;
10847;SDS011;5477;48.806;9.154;2024-01-15T07:28:57;6.43;;;3.30;;
10847;SDS011;5477;48.806;9.154;2024-01-15T07:31:26;7.03;;;4.10;;
10847;SDS011;5477;48.806;9.154;2024-01-15T07:33:54;7.67;;;4.57;;
10847;SDS011;5477;48.806;9.154;2024-01-15T07:36:24;7.57;;;4.53;;
10847;SDS011;5477;48.806;9.154;2024-01-15T07:38:52;8.13;;;4.77;;
10847;SDS011;5477;48.806;9.154;2024-01-15T07:41:20;9.90;;;4.80;;
10847;SDS011;5477;48.806;9.154;2024-01-15T07:43:48;8.47;;;4.37;;
10847;SDS011;5477;48.806;9.154;2024-01-15T07:46:16;6.73;;;4.37;;
10847;SDS011;5477;48.806;9.154;2024-01-15T07:48:44;8.13;;;4.33;;
10847;SDS011;5477;48.806;9.154;2024-01-15T07:51:12;9.30;;;5.13;;
10847;SDS011;5477;48.806;9.154;2024-01-15T07:53:42;6.80;;;4.40;;
10847;SDS011;5477;48.806;9.154;2024-01-15T07:56:10;10.30;;;4.97;;
10847;SDS011;5477;48.806;9.154;2024-01-15T07:58:38;7.20;;;4.60;;
10847;SDS011;5477;48.806;9.154;2024-01-15T08:01:06;10.70;;;5.57;;
10847;SDS011;5477;48.806;9.154;2024-01-15T08:03:35;7.13;;;4.30;;
10847;SDS011;5477;48.806;9.154;2024-01-15T08:06:03;7.87;;;4.40;;
10847;SDS011;5477;48.806;9.154;2024-01-15T08:08:32;7.63;;;4.50;;
10847;SDS011;5477;48.806;9.154;2024-01-15T08:11:02;8.97;;;4.53;;
10847;SDS011;5477;48.806;9.154;2024-01-15T08:13:30;8.27;;;4.53;;
10847;SDS011;5477;48.806;9.154;2024-01-15T08:15:58;10.47;;;5.10;;
10847;SDS011;5477;48.806;9.154;2024-01-15T08:18:26;12.07;;;4.53;;
10847;SDS011;5477;48.806;9.154;2024-01-15T08:20:54;9.00;;;5.03;;
10847;SDS011;5477;48.806;9.154;2024-01-15T08:23:23;7.87;;;4.20;;
10847;SDS011;5477;48.806;9.154;2024-01-15T08:25:51;7.13;;;4.60;;
10847;SDS011;5477;48.806;9.154;2024-01-15T08:28:20;7.20;;;4.80;;
10847;SDS011;5477;48.806;9.154;2024-01-15T08:30:48;7.67;;;5.13;;
10847;SDS011;5477;48.806;9.154;2024-01-15T08:33:17;8.03;;;4.47;;
10847;SDS011;5477;48.806;9.154;2024-01-15T08:35:48;9.87;;;4.70;;
10847;SDS011;5477;48.806;9.154;2024-01-15T08:38:16;4.13;;;2.70;;
10847;SDS011;5477;48.806;9.154;2024-01-15T08:40:44;6.13;;;4.30;;
10847;SDS011;5477;48.806;9.154;2024-01-15T08:43:12;7.13;;;4.27;;
10847;SDS011;5477;48.806;9.154;2024-01-15T08:45:42;6.23;;;3.77;;
10847;SDS011;5477;48.806;9.154;2024-01-15T08:48:10;6.73;;;4.20;;
10847;SDS011;5477;48.806;9.154;2024-01-15T08:50:38;5.87;;;3.67;;
10847;SDS011;5477;48.806;9.154;2024-01-15T08:53:06;6.53;;;3.80;;
10847;SDS011;5477;48.806;9.154;2024-01-15T08:55:34;7.13;;;4.40;;
10847;SDS011;5477;48.806;9.154;2024-01-15T08:58:03;7.00;;;3.93;;
10847;SDS011;5477;48.806;9.154;2024-01-15T09:00:32;5.43;;;3.23;;
10847;SDS011;5477;48.806;9.154;2024-01-15T09:03:02;7.57;;;3.60;;
10847;SDS011;5477;48.806;9.154;2024-01-15T09:05:30;4.53;;;3.40;;
10847;SDS011;5477;48.806;9.154;2024-01-15T09:07:57;6.67;;;3.80;;
10847;SDS011;5477;48.806;9.154;2024-01-15T09:10:25;7.63;;;4.27;;
10847;SDS011;5477;48.806;9.154;2024-01-15T09:12:53;7.37;;;4.27;;
10847;SDS011;5477;48.806;9.154;2024-01-15T09:15:21;7.03;;;4.23;;
10847;SDS011;5477;48.806;9.154;2024-01-15T09:17:50;6.00;;;3.63;;
10847;SDS011;5477;48.806;9.154;2024-01-15T09:20:19;6.87;;;3.70;;
10847;SDS011;5477;48.806;9.154;2024-01-15T09:22:48;6.57;;;3.90;;
10847;SDS011;5477;48.806;9.154;2024-01-15T09:25:16;7.47;;;3.70;;
10847;SDS011;5477;48.806;9.154;2024-01-15T09:27:45;4.87;;;3.50;;
10847;SDS011;5477;48.806;9.154;2024-01-15T09:30:14;6.50;;;3.63;;
10847;SDS011;5477;48.806;9.154;2024-01-15T09:32:42;7.47;;;3.83;;
10847;SDS011;5477;48.806;9.154;2024-01-15T09:35:10;5.90;;;3.40;;
10847;SDS011;5477;48.806;9.154;2024-01-15T09:37:40;5.60;;;3.57;;
10847;SDS011;5477;48.806;9.154;2024-01-15T09:40:14;6.27;;;3.77;;
10847;SDS011;5477;48.806;9.154;2024-01-15T09:42:43;5.77;;;3.53;;
10847;SDS011;5477;48.806;9.154;2024-01-15T09:45:13;5.97;;;3.37;;
10847;SDS011;5477;48.806;9.154;2024-01-15T09:47:41;5.70;;;3.53;;
10847;SDS011;5477;48.806;9.154;2024-01-15T09:50:12;8.23;;;3.83;;
10847;SDS011;5477;48.806;9.154;2024-01-15T09:52:44;7.20;;;3.70;;
10847;SDS011;5477;48.806;9.154;2024-01-15T09:55:13;5.60;;;3.30;;
10847;SDS011;5477;48.806;9.154;2024-01-15T09:57:41;7.70;;;3.43;;
10847;SDS011;5477;48.806;9.154;2024-01-15T10:00:11;6.17;;;3.40;;
10847;SDS011;5477;48.806;9.154;2024-01-15T10:02:40;5.97;;;3.40;;
10847;SDS011;5477;48.806;9.154;2024-01-15T10:05:08;5.23;;;3.03;;
10847;SDS011;5477;48.806;9.154;2024-01-15T10:07:37;5.63;;;3.27;;
10847;SDS011;5477;48.806;9.154;2024-01-15T10:10:08;4.73;;;3.10;;
10847;SDS011;5477;48.806;9.154;2024-01-15T10:12:37;6.93;;;3.87;;
10847;SDS011;5477;48.806;9.154;2024-01-15T10:15:09;5.90;;;3.10;;
10847;SDS011;5477;48.806;9.154;2024-01-15T10:17:37;5.00;;;3.03;;
10847;SDS011;5477;48.806;9.154;2024-01-15T10:20:07;7.87;;;3.70;;
10847;SDS011;5477;48.806;9.154;2024-01-15T10:22:39;6.37;;;3.10;;
10847;SDS011;5477;48.806;9.154;2024-01-15T10:25:11;5.40;;;2.80;;
10847;SDS011;5477;48.806;9.154;2024-01-15T10:27:40;6.10;;;3.07;;
10847;SDS011;5477;48.806;9.154;2024-01-15T10:30:09;4.73;;;3.00;;
10847;SDS011;5477;48.806;9.154;2024-01-15T10:32:39;5.87;;;3.30;;
10847;SDS011;5477;48.806;9.154;2024-01-15T10:35:08;7.07;;;3.03;;
10847;SDS011;5477;48.806;9.154;2024-01-15T10:37:36;7.83;;;4.07;;
10847;SDS011;5477;48.806;9.154;2024-01-15T10:40:04;8.93;;;3.70;;
10847;SDS011;5477;48.806;9.154;2024-01-15T10:42:35;6.73;;;3.10;;
10847;SDS011;5477;48.806;9.154;2024-01-15T10:45:03;5.90;;;3.40;;
10847;SDS011;5477;48.806;9.154;2024-01-15T10:47:31;3.77;;;2.80;;
10847;SDS011;5477;48.806;9.154;2024-01-15T10:49:59;3.67;;;2.50;;
10847;SDS011;5477;48.806;9.154;2024-01-15T10:52:29;5.73;;;3.20;;
10847;SDS011;5477;48.806;9.154;2024-01-15T10:54:57;3.20;;;2.33;;
10847;SDS011;5477;48.806;9.154;2024-01-15T10:57:36;6.27;;;3.17;;
10847;SDS011;5477;48.806;9.154;2024-01-15T11:00:05;4.23;;;2.80;;
10847;SDS011;5477;48.806;9.154;2024-01-15T11:02:38;3.93;;;2.47;;
10847;SDS011;5477;48.806;9.154;2024-01-15T11:05:06;4.27;;;2.67;;
10847;SDS011;5477;48.806;9.154;2024-01-15T11:07:34;5.70;;;2.37;;
10847;SDS011;5477;48.806;9.154;2024-01-15T11:10:03;7.73;;;2.77;;
10847;SDS011;5477;48.806;9.154;2024-01-15T11:12:32;5.00;;;2.80;;
10847;SDS011;5477;48.806;9.154;2024-01-15T11:15:05;4.63;;;2.80;;
10847;SDS011;5477;48.806;9.154;2024-01-15T11:20:26;4.77;;;3.00;;
10847;SDS011;5477;48.806;9.154;2024-01-15T11:22:54;5.20;;;2.80;;
10847;SDS011;5477;48.806;9.154;2024-01-15T11:25:24;4.07;;;2.77;;
10847;SDS011;5477;48.806;9.154;2024-01-15T11:28:01;5.17;;;3.33;;
10847;SDS011;5477;48.806;9.154;2024-01-15T11:30:31;5.60;;;3.23;;
10847;SDS011;5477;48.806;9.154;2024-01-15T11:33:03;5.30;;;2.97;;
10847;SDS011;5477;48.806;9.154;2024-01-15T11:35:49;5.83;;;3.07;;
10847;SDS011;5477;48.806;9.154;2024-01-15T11:38:27;6.10;;;3.77;;
10847;SDS011;5477;48.806;9.154;2024-01-15T11:40:56;5.23;;;3.27;;
10847;SDS011;5477;48.806;9.154;2024-01-15T11:43:26;4.47;;;2.70;;
10847;SDS011;5477;48.806;9.154;2024-01-15T11:46:11;6.33;;;3.47;;
10847;SDS011;5477;48.806;9.154;2024-01-15T11:48:43;6.23;;;3.30;;
10847;SDS011;5477;48.806;9.154;2024-01-15T11:51:12;5.67;;;3.33;;
10847;SDS011;5477;48.806;9.154;2024-01-15T11:53:43;5.77;;;3.03;;
10847;SDS011;5477;48.806;9.154;2024-01-15T11:56:15;5.90;;;3.53;;
10847;SDS011;5477;48.806;9.154;2024-01-15T11:58:44;7.23;;;3.17;;
10847;SDS011;5477;48.806;9.154;2024-01-15T12:01:13;5.07;;;2.93;;
10847;SDS011;5477;48.806;9.154;2024-01-15T12:03:41;4.37;;;3.23;;
10847;SDS011;5477;48.806;9.154;2024-01-15T12:06:09;5.23;;;3.50;;
10847;SDS011;5477;48.806;9.154;2024-01-15T12:08:38;5.83;;;3.10;;
10847;SDS011;5477;48.806;9.154;2024-01-15T12:11:06;6.70;;;3.50;;
10847;SDS011;5477;48.806;9.154;2024-01-15T12:13:38;7.90;;;3.20;;
10847;SDS011;5477;48.806;9.154;2024-01-15T12:16:06;4.27;;;2.70;;
10847;SDS011;5477;48.806;9.154;2024-01-15T12:18:35;5.30;;;3.57;;
10847;SDS011;5477;48.806;9.154;2024-01-15T12:21:04;4.97;;;3.10;;
10847;SDS011;5477;48.806;9.154;2024-01-15T12:23:33;6.77;;;3.20;;
10847;SDS011;5477;48.806;9.154;2024-01-15T12:26:01;4.97;;;3.07;;
10847;SDS011;5477;48.806;9.154;2024-01-15T12:28:29;5.60;;;3.13;;
10847;SDS011;5477;48.806;9.154;2024-01-15T12:30:58;5.53;;;3.10;;
10847;SDS011;5477;48.806;9.154;2024-01-15T12:33:27;4.60;;;3.20;;
10847;SDS011;5477;48.806;9.154;2024-01-15T12:35:56;5.03;;;3.07;;
10847;SDS011;5477;48.806;9.154;2024-01-15T12:38:24;8.10;;;3.20;;
10847;SDS011;5477;48.806;9.154;2024-01-15T12:40:52;4.93;;;3.50;;
10847;SDS011;5477;48.806;9.154;2024-01-15T12:43:21;6.10;;;3.67;;
10847;SDS011;5477;48.806;9.154;2024-01-15T12:45:49;4.90;;;2.80;;
10847;SDS011;5477;48.806;9.154;2024-01-15T12:48:18;5.70;;;3.37;;
10847;SDS011;5477;48.806;9.154;2024-01-15T12:50:46;5.83;;;3.43;;
10847;SDS011;5477;48.806;9.154;2024-01-15T12:53:16;5.13;;;3.13;;
10847;SDS011;5477;48.806;9.154;2024-01-15T12:55:44;5.17;;;3.07;;
10847;SDS011;5477;48.806;9.154;2024-01-15T12:58:12;6.50;;;3.00;;
10847;SDS011;5477;48.806;9.154;2024-01-15T13:00:41;6.23;;;3.50;;
10847;SDS011;5477;48.806;9.154;2024-01-15T13:03:10;7.20;;;3.70;;
10847;SDS011;5477;48.806;9.154;2024-01-15T13:05:38;6.60;;;3.77;;
10847;SDS011;5477;48.806;9.154;2024-01-15T13:08:07;6.70;;;3.50;;
10847;SDS011;5477;48.806;9.154;2024-01-15T13:10:37;4.67;;;3.23;;
10847;SDS011;5477;48.806;9.154;2024-01-15T13:13:05;5.43;;;3.33;;
10847;SDS011;5477;48.806;9.154;2024-01-15T13:15:33;4.43;;;2.80;;
10847;SDS011;5477;48.806;9.154;2024-01-15T13:18:02;5.20;;;2.80;;
10847;SDS011;5477;48.806;9.154;2024-01-15T13:20:30;4.27;;;2.70;;
10847;SDS011;5477;48.806;9.154;2024-01-15T13:22:58;4.20;;;2.73;;
10847;SDS011;5477;48.806;9.154;2024-01-15T13:25:26;3.90;;;2.10;;
10847;SDS011;5477;48.806;9.154;2024-01-15T13:27:55;4.00;;;2.60;;
10847;SDS011;5477;48.806;9.154;2024-01-15T13:30:23;4.77;;;2.60;;
10847;SDS011;5477;48.806;9.154;2024-01-15T13:32:51;3.77;;;2.67;;
10847;SDS011;5477;48.806;9.154;2024-01-15T13:35:20;3.17;;;1.70;;
10847;SDS011;5477;48.806;9.154;2024-01-15T13:37:48;2.73;;;2.07;;
10847;SDS011;5477;48.806;9.154;2024-01-15T13:40:16;2.47;;;1.70;;
10847;SDS011;5477;48.806;9.154;2024-01-15T13:42:46;3.40;;;2.00;;
10847;SDS011;5477;48.806;9.154;2024-01-15T13:45:16;3.33;;;2.03;;
10847;SDS011;5477;48.806;9.154;2024-01-15T13:47:44;2.90;;;2.00;;
10847;SDS011;5477;48.806;9.154;2024-01-15T13:50:12;2.73;;;1.90;;
10847;SDS011;5477;48.806;9.154;2024-01-15T13:52:41;3.90;;;2.50;;
10847;SDS011;5477;48.806;9.154;2024-01-15T13:55:09;2.50;;;2.10;;
10847;SDS011;5477;48.806;9.154;2024-01-15T13:57:37;2.20;;;1.83;;
10847;SDS011;5477;48.806;9.154;2024-01-15T14:00:05;2.60;;;2.10;;
10847;SDS011;5477;48.806;9.154;2024-01-15T14:02:40;2.37;;;2.00;;
10847;SDS011;5477;48.806;9.154;2024-01-15T14:05:08;3.00;;;2.40;;
10847;SDS011;5477;48.806;9.154;2024-01-15T14:07:39;4.10;;;2.63;;
10847;SDS011;5477;48.806;9.154;2024-01-15T14:10:07;2.83;;;1.97;;
10847;SDS011;5477;48.806;9.154;2024-01-15T14:12:35;3.60;;;2.73;;
10847;SDS011;5477;48.806;9.154;2024-01-15T14:15:04;3.70;;;2.53;;
10847;SDS011;5477;48.806;9.154;2024-01-15T14:17:33;3.43;;;2.90;;
10847;SDS011;5477;48.806;9.154;2024-01-15T14:20:03;4.50;;;2.37;;
10847;SDS011;5477;48.806;9.154;2024-01-15T14:22:32;3.07;;;2.53;;
10847;SDS011;5477;48.806;9.154;2024-01-15T14:25:00;3.20;;;2.70;;
10847;SDS011;5477;48.806;9.154;2024-01-15T14:27:29;3.93;;;2.40;;
10847;SDS011;5477;48.806;9.154;2024-01-15T14:29:59;3.80;;;2.70;;
10847;SDS011;5477;48.806;9.154;2024-01-15T14:32:27;4.23;;;2.97;;
10847;SDS011;5477;48.806;9.154;2024-01-15T14:34:55;3.97;;;2.70;;
10847;SDS011;5477;48.806;9.154;2024-01-15T14:37:25;4.27;;;2.87;;
10847;SDS011;5477;48.806;9.154;2024-01-15T14:39:53;4.27;;;3.13;;
10847;SDS011;5477;48.806;9.154;2024-01-15T14:42:21;4.13;;;3.23;;
10847;SDS011;5477;48.806;9.154;2024-01-15T14:44:50;6.43;;;3.93;;
10847;SDS011;5477;48.806;9.154;2024-01-15T14:47:18;5.53;;;3.67;;
10847;SDS011;5477;48.806;9.154;2024-01-15T14:49:50;6.20;;;4.53;;
10847;SDS011;5477;48.806;9.154;2024-01-15T14:52:18;6.27;;;4.63;;
10847;SDS011;5477;48.806;9.154;2024-01-15T14:54:48;5.37;;;4.00;;
10847;SDS011;5477;48.806;9.154;2024-01-15T14:57:16;6.93;;;4.63;;
10847;SDS011;5477;48.806;9.154;2024-01-15T14:59:45;7.10;;;4.50;;
10847;SDS011;5477;48.806;9.154;2024-01-15T15:02:13;6.50;;;4.27;;
10847;SDS011;5477;48.806;9.154;2024-01-15T15:04:42;5.73;;;4.60;;
10847;SDS011;5477;48.806;9.154;2024-01-15T15:07:14;6.80;;;4.17;;
10847;SDS011;5477;48.806;9.154;2024-01-15T15:09:43;5.90;;;4.57;;